createdAt,value
2019-02-06T00:00:51.439Z,60.80
2019-02-06T00:01:51.582Z,60.61
2019-02-06T00:02:51.724Z,61.18
2019-02-06T00:03:51.876Z,62.12
2019-02-06T00:04:52.006Z,63.16
2019-02-06T00:05:52.154Z,62.59
2019-02-06T00:06:52.291Z,60.89
2019-02-06T00:07:52.437Z,60.70
2019-02-06T00:08:52.579Z,60.52
2019-02-06T00:09:52.723Z,60.52
2019-02-06T00:10:52.982Z,61.46
2019-02-06T00:11:53.010Z,62.02
2019-02-06T00:12:53.148Z,63.01
2019-02-06T00:13:53.306Z,65.37
2019-02-06T00:14:53.433Z,66.79
2019-02-06T00:15:53.615Z,65.72
2019-02-06T00:16:53.719Z,66.09
2019-02-06T00:17:53.865Z,66.94
2019-02-06T00:18:54.009Z,66.85
2019-02-06T00:19:54.147Z,66.00
2019-02-06T00:20:54.300Z,65.34
2019-02-06T00:21:54.445Z,63.82
2019-02-06T00:22:54.589Z,62.12
2019-02-06T00:23:54.731Z,60.99
2019-02-06T00:24:54.870Z,59.76
2019-02-06T00:25:55.016Z,59.57
2019-02-06T00:26:55.161Z,59.95
2019-02-06T00:27:55.305Z,60.89
2019-02-06T00:28:55.446Z,62.50
2019-02-06T00:29:55.586Z,62.97
2019-02-06T00:30:55.730Z,63.54
2019-02-06T00:31:55.874Z,65.91
2019-02-06T00:32:56.019Z,66.75
2019-02-06T00:33:56.160Z,67.98
2019-02-06T00:34:56.305Z,69.12
2019-02-06T00:35:56.450Z,69.59
2019-02-06T00:36:56.593Z,68.84
2019-02-06T00:37:56.737Z,69.21
2019-02-06T00:38:56.881Z,70.35
2019-02-06T00:39:57.022Z,69.78
2019-02-06T00:40:57.165Z,70.92
2019-02-06T00:41:57.308Z,69.97
2019-02-06T00:42:57.453Z,69.49
2019-02-06T00:43:57.596Z,69.97
2019-02-06T00:44:57.742Z,72.14
2019-02-06T00:45:57.886Z,73.85
2019-02-06T00:46:58.032Z,74.32
2019-02-06T00:47:58.173Z,74.22
2019-02-06T00:48:58.317Z,74.88
2019-02-06T00:49:58.461Z,76.59
2019-02-06T00:50:58.605Z,74.13
2019-02-06T00:51:58.749Z,73.47
2019-02-06T00:52:58.890Z,73.28
2019-02-06T00:53:59.145Z,70.82
2019-02-06T00:54:59.184Z,71.20
2019-02-06T00:55:59.326Z,72.43
2019-02-06T00:56:59.472Z,73.85
2019-02-06T00:57:59.609Z,74.51
2019-02-06T00:58:59.751Z,75.45
2019-02-06T00:59:59.896Z,74.51
2019-02-06T01:01:00.038Z,73.47
2019-02-06T01:02:00.182Z,73.18
2019-02-06T01:03:00.325Z,73.66
2019-02-06T01:04:00.477Z,72.24
2019-02-06T01:05:00.614Z,71.11
2019-02-06T01:06:00.753Z,69.49
2019-02-06T01:07:00.898Z,68.36
2019-02-06T01:08:01.040Z,68.08
2019-02-06T01:09:01.182Z,66.56
2019-02-06T01:10:01.327Z,65.05
2019-02-06T01:11:01.468Z,64.29
2019-02-06T01:12:01.612Z,64.39
2019-02-06T01:13:01.755Z,64.67
2019-02-06T01:14:01.898Z,65.05
2019-02-06T01:15:02.039Z,66.00
2019-02-06T01:16:02.182Z,67.89
2019-02-06T01:17:02.325Z,67.79
2019-02-06T01:18:02.469Z,69.12
2019-02-06T01:19:02.610Z,69.78
2019-02-06T01:20:02.751Z,69.78
2019-02-06T01:21:02.895Z,68.27
2019-02-06T01:22:03.036Z,67.85
2019-02-06T01:23:03.179Z,67.00
2019-02-06T01:24:03.321Z,66.53
2019-02-06T01:25:03.466Z,66.06
2019-02-06T01:26:03.607Z,66.16
2019-02-06T01:27:03.829Z,67.00
2019-02-06T01:28:03.891Z,68.74
2019-02-06T01:29:04.036Z,68.42
2019-02-06T01:30:04.177Z,67.38
2019-02-06T01:31:04.319Z,66.63
2019-02-06T01:32:04.460Z,65.78
2019-02-06T01:33:04.607Z,63.42
2019-02-06T01:34:04.747Z,62.28
2019-02-06T01:35:04.890Z,61.90
2019-02-06T01:36:05.031Z,61.15
2019-02-06T01:37:05.175Z,59.25
2019-02-06T01:38:05.447Z,58.69
2019-02-06T01:39:05.453Z,59.82
2019-02-06T01:40:05.596Z,60.39
2019-02-06T01:41:05.737Z,60.77
2019-02-06T01:42:05.883Z,59.63
2019-02-06T01:43:06.027Z,60.30
2019-02-06T01:44:06.167Z,59.82
2019-02-06T01:45:06.306Z,59.92
2019-02-06T01:46:06.448Z,60.01
2019-02-06T01:47:06.592Z,62.66
2019-02-06T01:48:06.735Z,65.11
2019-02-06T01:49:06.877Z,67.47
2019-02-06T01:50:07.023Z,68.42
2019-02-06T01:51:07.162Z,67.47
2019-02-06T01:52:07.304Z,67.10
2019-02-06T01:53:07.448Z,66.35
2019-02-06T01:54:07.608Z,67.10
2019-02-06T01:55:07.741Z,66.25
2019-02-06T01:56:07.881Z,66.82
2019-02-06T01:57:08.024Z,68.42
2019-02-06T01:58:08.170Z,68.61
2019-02-06T01:59:08.310Z,70.40
2019-02-06T02:00:08.451Z,69.56
2019-02-06T02:01:08.594Z,71.07
2019-02-06T02:02:08.736Z,70.03
2019-02-06T02:03:08.880Z,70.12
2019-02-06T02:04:09.022Z,70.12
2019-02-06T02:05:09.163Z,72.49
2019-02-06T02:06:09.307Z,72.11
2019-02-06T02:07:09.448Z,73.43
2019-02-06T02:08:09.589Z,72.86
2019-02-06T02:09:09.730Z,71.16
2019-02-06T02:10:09.871Z,71.07
2019-02-06T02:11:10.013Z,69.46
2019-02-06T02:12:10.158Z,69.65
2019-02-06T02:13:10.299Z,69.65
2019-02-06T02:14:10.441Z,70.50
2019-02-06T02:15:10.584Z,71.64
2019-02-06T02:16:10.727Z,70.31
2019-02-06T02:17:10.890Z,68.33
2019-02-06T02:18:11.031Z,66.82
2019-02-06T02:19:11.173Z,68.14
2019-02-06T02:20:11.317Z,68.14
2019-02-06T02:21:11.461Z,67.29
2019-02-06T02:22:11.602Z,66.63
2019-02-06T02:23:11.744Z,65.68
2019-02-06T02:24:11.885Z,65.30
2019-02-06T02:25:12.030Z,64.83
2019-02-06T02:26:12.171Z,65.59
2019-02-06T02:27:12.312Z,67.00
2019-02-06T02:28:12.453Z,67.19
2019-02-06T02:29:12.596Z,65.97
2019-02-06T02:30:12.737Z,65.87
2019-02-06T02:31:12.884Z,66.25
2019-02-06T02:32:13.024Z,66.16
2019-02-06T02:33:13.173Z,64.45
2019-02-06T02:34:13.309Z,61.90
2019-02-06T02:35:13.453Z,59.63
2019-02-06T02:36:16.293Z,54.81
2019-02-06T02:37:13.841Z,52.64
2019-02-06T02:38:13.877Z,51.69
2019-02-06T02:39:14.022Z,49.90
2019-02-06T02:40:14.165Z,48.48
2019-02-06T02:41:14.307Z,47.44
2019-02-06T02:42:14.450Z,48.10
2019-02-06T02:43:14.591Z,48.29
2019-02-06T02:44:14.736Z,49.43
2019-02-06T02:45:14.881Z,49.71
2019-02-06T02:46:15.019Z,49.43
2019-02-06T02:47:15.237Z,48.29
2019-02-06T02:48:15.307Z,47.63
2019-02-06T02:49:15.445Z,46.59
2019-02-06T02:50:15.587Z,46.59
2019-02-06T02:51:15.729Z,45.17
2019-02-06T02:52:15.874Z,43.95
2019-02-06T02:53:16.014Z,43.47
2019-02-06T02:54:16.161Z,42.81
2019-02-06T02:55:16.297Z,41.96
2019-02-06T02:56:16.438Z,41.39
2019-02-06T02:57:16.579Z,41.20
2019-02-06T02:58:16.727Z,41.30
2019-02-06T02:59:16.866Z,42.24
2019-02-06T03:00:17.007Z,44.79
2019-02-06T03:01:17.183Z,46.78
2019-02-06T03:02:17.288Z,48.20
2019-02-06T03:03:17.427Z,50.65
2019-02-06T03:04:17.570Z,51.60
2019-02-06T03:05:17.715Z,51.60
2019-02-06T03:06:27.588Z,50.94
2019-02-06T03:07:17.998Z,50.46
2019-02-06T03:08:18.141Z,50.18
2019-02-06T03:09:18.282Z,50.75
2019-02-06T03:10:18.516Z,52.07
2019-02-06T03:11:18.568Z,52.92
2019-02-06T03:12:18.711Z,51.98
2019-02-06T03:13:18.853Z,52.64
2019-02-06T03:14:18.993Z,53.96
2019-02-06T03:15:19.138Z,53.96
2019-02-06T03:16:19.279Z,54.72
2019-02-06T03:17:19.421Z,55.85
2019-02-06T03:18:19.564Z,57.08
2019-02-06T03:19:19.706Z,57.37
2019-02-06T03:20:19.850Z,57.27
2019-02-06T03:21:19.993Z,57.74
2019-02-06T03:22:20.140Z,57.65
2019-02-06T03:23:20.276Z,56.80
2019-02-06T03:24:20.419Z,57.08
2019-02-06T03:25:20.558Z,57.46
2019-02-06T03:26:20.706Z,57.74
2019-02-06T03:27:20.843Z,57.84
2019-02-06T03:28:20.987Z,58.69
2019-02-06T03:29:21.126Z,59.16
2019-02-06T03:30:21.277Z,60.01
2019-02-06T03:31:21.413Z,60.39
2019-02-06T03:32:21.565Z,60.86
2019-02-06T03:33:21.708Z,60.39
2019-02-06T03:34:21.842Z,61.24
2019-02-06T03:35:21.983Z,60.58
2019-02-06T03:36:22.130Z,62.37
2019-02-06T03:37:22.275Z,62.28
2019-02-06T03:38:22.434Z,62.56
2019-02-06T03:39:22.550Z,61.99
2019-02-06T03:40:22.694Z,62.56
2019-02-06T03:41:22.834Z,62.28
2019-02-06T03:42:22.980Z,62.75
2019-02-06T03:43:23.123Z,63.10
2019-02-06T03:44:23.258Z,62.25
2019-02-06T03:45:23.405Z,61.21
2019-02-06T03:46:23.542Z,61.33
2019-02-06T03:47:23.684Z,63.23
2019-02-06T03:48:23.826Z,63.29
2019-02-06T03:49:23.971Z,63.23
2019-02-06T03:50:24.114Z,63.04
2019-02-06T03:51:24.251Z,63.51
2019-02-06T03:52:24.395Z,64.64
2019-02-06T03:53:24.539Z,65.30
2019-02-06T03:54:24.690Z,64.64
2019-02-06T03:55:24.822Z,63.89
2019-02-06T03:56:24.963Z,64.45
2019-02-06T03:57:25.106Z,64.54
2019-02-06T03:58:25.247Z,63.89
2019-02-06T03:59:25.390Z,65.68
2019-02-06T04:00:25.532Z,66.72
2019-02-06T04:01:25.674Z,66.35
2019-02-06T04:02:25.816Z,67.19
2019-02-06T04:03:25.961Z,66.25
2019-02-06T04:04:26.103Z,63.79
2019-02-06T04:05:26.240Z,62.56
2019-02-06T04:06:26.498Z,61.15
2019-02-06T04:07:26.527Z,61.43
2019-02-06T04:08:26.671Z,61.24
2019-02-06T04:09:26.812Z,62.47
2019-02-06T04:10:26.956Z,61.21
2019-02-06T04:11:27.097Z,60.64
2019-02-06T04:12:27.238Z,59.70
2019-02-06T04:13:27.381Z,59.32
2019-02-06T04:14:27.525Z,56.48
2019-02-06T04:15:27.668Z,56.58
2019-02-06T04:16:27.811Z,56.58
2019-02-06T04:17:27.951Z,56.48
2019-02-06T04:18:28.097Z,56.20
2019-02-06T04:19:28.246Z,56.01
2019-02-06T04:20:28.381Z,54.60
2019-02-06T04:21:28.528Z,54.97
2019-02-06T04:22:28.668Z,56.04
2019-02-06T04:23:28.811Z,56.89
2019-02-06T04:24:28.960Z,57.55
2019-02-06T04:25:29.094Z,57.46
2019-02-06T04:26:29.234Z,57.84
2019-02-06T04:27:29.380Z,57.74
2019-02-06T04:28:29.519Z,59.25
2019-02-06T04:29:29.667Z,59.73
2019-02-06T04:30:29.810Z,60.39
2019-02-06T04:31:29.947Z,62.85
2019-02-06T04:32:30.089Z,63.29
2019-02-06T04:33:30.234Z,61.21
2019-02-06T04:34:30.376Z,59.51
2019-02-06T04:35:30.520Z,59.51
2019-02-06T04:36:30.661Z,57.81
2019-02-06T04:37:30.805Z,56.11
2019-02-06T04:38:30.947Z,54.79
2019-02-06T04:39:31.089Z,53.27
2019-02-06T04:40:31.232Z,52.33
2019-02-06T04:41:31.374Z,50.91
2019-02-06T04:42:31.521Z,50.06
2019-02-06T04:43:31.660Z,49.30
2019-02-06T04:44:31.807Z,48.27
2019-02-06T04:45:31.947Z,47.32
2019-02-06T04:46:32.090Z,47.04
2019-02-06T04:47:32.233Z,47.13
2019-02-06T04:48:32.389Z,47.42
2019-02-06T04:49:32.512Z,48.27
2019-02-06T04:50:32.657Z,49.87
2019-02-06T04:51:32.798Z,49.87
2019-02-06T04:52:32.941Z,50.25
2019-02-06T04:53:33.086Z,49.97
2019-02-06T04:54:33.227Z,49.59
2019-02-06T04:55:33.368Z,49.11
2019-02-06T04:56:33.512Z,47.89
2019-02-06T04:57:33.651Z,47.42
2019-02-06T04:58:33.796Z,47.13
2019-02-06T04:59:33.933Z,47.04
2019-02-06T05:00:34.089Z,47.70
2019-02-06T05:01:34.227Z,49.30
2019-02-06T05:02:34.370Z,49.40
2019-02-06T05:03:34.513Z,50.06
2019-02-06T05:04:34.655Z,51.39
2019-02-06T05:05:34.800Z,52.33
2019-02-06T05:06:34.942Z,53.75
2019-02-06T05:07:35.088Z,54.32
2019-02-06T05:08:35.229Z,54.41
2019-02-06T05:09:35.371Z,54.69
2019-02-06T05:10:35.514Z,56.20
2019-02-06T05:11:35.656Z,57.18
2019-02-06T05:12:35.803Z,57.46
2019-02-06T05:13:35.951Z,58.97
2019-02-06T05:14:36.084Z,60.01
2019-02-06T05:15:36.227Z,61.24
2019-02-06T05:16:36.370Z,60.83
2019-02-06T05:17:36.519Z,59.32
2019-02-06T05:18:36.655Z,57.27
2019-02-06T05:19:36.862Z,56.99
2019-02-06T05:20:36.944Z,57.27
2019-02-06T05:21:37.219Z,57.65
2019-02-06T05:22:37.227Z,59.44
2019-02-06T05:23:37.369Z,60.64
2019-02-06T05:24:37.511Z,61.30
2019-02-06T05:25:37.654Z,62.56
2019-02-06T05:26:37.797Z,62.94
2019-02-06T05:27:37.941Z,63.23
2019-02-06T05:28:38.086Z,64.73
2019-02-06T05:29:38.228Z,64.73
2019-02-06T05:30:38.375Z,63.42
2019-02-06T05:31:38.599Z,62.15
2019-02-06T05:32:42.819Z,62.09
2019-02-06T05:33:38.799Z,61.21
2019-02-06T05:34:38.958Z,60.36
2019-02-06T05:35:39.085Z,60.08
2019-02-06T05:36:39.228Z,59.51
2019-02-06T05:37:39.369Z,57.71
2019-02-06T05:38:39.511Z,57.15
2019-02-06T05:39:39.654Z,55.54
2019-02-06T05:40:39.797Z,55.73
2019-02-06T05:41:39.940Z,56.39
2019-02-06T05:42:40.084Z,56.48
2019-02-06T05:43:40.228Z,56.48
2019-02-06T05:44:40.366Z,57.34
2019-02-06T05:45:40.511Z,58.65
2019-02-06T05:46:40.652Z,59.41
2019-02-06T05:47:40.796Z,59.60
2019-02-06T05:48:40.941Z,60.36
2019-02-06T05:49:41.087Z,59.70
2019-02-06T05:50:41.227Z,59.79
2019-02-06T05:51:41.369Z,60.46
2019-02-06T05:52:41.513Z,61.02
2019-02-06T05:53:41.654Z,62.91
2019-02-06T05:54:41.796Z,64.89
2019-02-06T05:55:41.941Z,66.59
2019-02-06T05:56:42.084Z,65.36
2019-02-06T05:57:42.228Z,63.19
2019-02-06T05:58:42.369Z,63.19
2019-02-06T05:59:42.515Z,63.29
2019-02-06T06:00:42.657Z,63.19
2019-02-06T06:01:42.800Z,63.48
2019-02-06T06:02:42.944Z,62.91
2019-02-06T06:03:43.086Z,63.00
2019-02-06T06:04:43.227Z,61.96
2019-02-06T06:05:43.371Z,59.70
2019-02-06T06:06:43.518Z,59.13
2019-02-06T06:07:45.522Z,59.03
2019-02-06T06:08:43.801Z,58.75
2019-02-06T06:09:43.941Z,60.55
2019-02-06T06:10:44.085Z,60.93
2019-02-06T06:11:44.236Z,60.17
2019-02-06T06:12:44.369Z,58.75
2019-02-06T06:13:44.516Z,58.37
2019-02-06T06:14:44.658Z,58.47
2019-02-06T06:15:44.805Z,58.84
2019-02-06T06:16:44.946Z,58.56
2019-02-06T06:17:45.089Z,58.47
2019-02-06T06:18:45.233Z,58.65
2019-02-06T06:19:45.375Z,59.13
2019-02-06T06:20:45.521Z,59.03
2019-02-06T06:21:45.664Z,60.08
2019-02-06T06:22:45.808Z,60.46
2019-02-06T06:23:45.949Z,60.36
2019-02-06T06:24:46.093Z,60.64
2019-02-06T06:25:46.234Z,60.67
2019-02-06T06:26:46.376Z,61.99
2019-02-06T06:27:46.539Z,63.00
2019-02-06T06:28:46.673Z,63.29
2019-02-06T06:29:46.818Z,63.29
2019-02-06T06:30:47.454Z,63.60
2019-02-06T06:31:47.101Z,66.59
2019-02-06T06:32:47.245Z,67.07
2019-02-06T06:33:47.404Z,66.44
2019-02-06T06:34:47.546Z,67.10
2019-02-06T06:35:47.691Z,67.07
2019-02-06T06:36:47.833Z,67.76
2019-02-06T06:37:57.776Z,68.23
2019-02-06T06:38:48.117Z,68.42
2019-02-06T06:39:48.264Z,69.24
2019-02-06T06:40:48.408Z,68.57
2019-02-06T06:41:48.546Z,68.01
2019-02-06T06:42:48.688Z,68.67
2019-02-06T06:43:48.829Z,68.48
2019-02-06T06:44:48.971Z,69.14
2019-02-06T06:45:49.114Z,69.37
2019-02-06T06:46:49.257Z,68.67
2019-02-06T06:47:49.401Z,68.29
2019-02-06T06:48:49.542Z,66.31
2019-02-06T06:49:49.687Z,64.89
2019-02-06T06:50:49.829Z,63.48
2019-02-06T06:51:49.972Z,61.68
2019-02-06T06:52:50.116Z,59.92
2019-02-06T06:53:50.255Z,58.59
2019-02-06T06:54:50.415Z,59.25
2019-02-06T06:55:50.537Z,60.39
2019-02-06T06:56:50.679Z,62.85
2019-02-06T06:57:50.824Z,62.94
2019-02-06T06:58:50.970Z,64.45
2019-02-06T06:59:51.111Z,66.53
2019-02-06T07:00:51.254Z,68.14
2019-02-06T07:01:51.395Z,69.65
2019-02-06T07:02:51.543Z,70.88
2019-02-06T07:03:51.680Z,69.33
2019-02-06T07:04:51.827Z,67.54
2019-02-06T07:05:51.968Z,66.82
2019-02-06T07:06:52.110Z,67.66
2019-02-06T07:07:52.251Z,67.85
2019-02-06T07:08:52.400Z,67.57
2019-02-06T07:09:52.539Z,67.66
2019-02-06T07:10:52.686Z,68.99
2019-02-06T07:11:52.825Z,69.56
2019-02-06T07:12:52.968Z,69.56
2019-02-06T07:13:53.114Z,69.37
2019-02-06T07:14:53.258Z,68.71
2019-02-06T07:15:53.396Z,68.57
2019-02-06T07:16:53.540Z,68.86
2019-02-06T07:17:53.682Z,69.09
2019-02-06T07:18:53.829Z,69.46
2019-02-06T07:19:53.969Z,70.21
2019-02-06T07:20:54.120Z,70.03
2019-02-06T07:21:54.256Z,69.46
2019-02-06T07:22:54.419Z,68.33
2019-02-06T07:23:54.561Z,68.52
2019-02-06T07:24:54.704Z,68.04
2019-02-06T07:25:54.833Z,67.19
2019-02-06T07:26:54.974Z,66.72
2019-02-06T07:27:55.116Z,68.04
2019-02-06T07:28:55.268Z,69.27
2019-02-06T07:29:55.401Z,70.78
2019-02-06T07:30:55.550Z,72.39
2019-02-06T07:31:55.689Z,73.33
2019-02-06T07:32:55.832Z,74.47
2019-02-06T07:33:55.975Z,74.95
2019-02-06T07:34:56.115Z,74.19
2019-02-06T07:35:56.260Z,72.20
2019-02-06T07:36:56.401Z,69.93
2019-02-06T07:37:56.545Z,69.84
2019-02-06T07:38:56.688Z,68.99
2019-02-06T07:39:56.830Z,68.14
2019-02-06T07:40:56.973Z,68.42
2019-02-06T07:41:57.117Z,70.50
2019-02-06T07:42:57.259Z,72.77
2019-02-06T07:43:57.402Z,74.28
2019-02-06T07:44:57.543Z,76.45
2019-02-06T07:45:57.689Z,77.69
2019-02-06T07:46:57.833Z,77.31
2019-02-06T07:47:58.034Z,79.19
2019-02-06T07:48:58.119Z,79.95
2019-02-06T07:49:58.263Z,80.80
2019-02-06T07:50:58.432Z,81.74
2019-02-06T07:51:58.548Z,81.46
2019-02-06T07:52:58.694Z,81.09
2019-02-06T07:53:58.837Z,79.76
2019-02-06T07:54:58.981Z,79.10
2019-02-06T07:55:59.131Z,78.63
2019-02-06T07:56:59.271Z,79.76
2019-02-06T07:57:59.487Z,78.91
2019-02-06T07:58:59.559Z,79.00
2019-02-06T07:59:59.703Z,79.29
2019-02-06T08:00:59.846Z,80.05
2019-02-06T08:02:00.039Z,78.16
2019-02-06T08:03:00.133Z,78.06
2019-02-06T08:04:00.274Z,78.53
2019-02-06T08:05:00.418Z,79.76
2019-02-06T08:06:00.560Z,80.90
2019-02-06T08:07:00.704Z,82.50
2019-02-06T08:08:00.857Z,82.12
2019-02-06T08:09:00.990Z,80.52
2019-02-06T08:10:01.133Z,80.24
2019-02-06T08:11:03.064Z,80.99
2019-02-06T08:12:01.421Z,81.93
2019-02-06T08:13:01.564Z,81.84
2019-02-06T08:14:01.710Z,82.17
2019-02-06T08:15:01.860Z,81.88
2019-02-06T08:16:01.993Z,82.92
2019-02-06T08:17:02.139Z,82.73
2019-02-06T08:18:02.282Z,82.54
2019-02-06T08:19:02.423Z,83.87
2019-02-06T08:20:02.569Z,83.68
2019-02-06T08:21:02.714Z,82.83
2019-02-06T08:22:02.857Z,82.64
2019-02-06T08:23:02.999Z,80.71
2019-02-06T08:24:03.143Z,80.46
2019-02-06T08:25:03.287Z,78.10
2019-02-06T08:26:03.435Z,77.53
2019-02-06T08:27:03.578Z,79.43
2019-02-06T08:28:03.724Z,80.08
2019-02-06T08:29:03.864Z,80.75
2019-02-06T08:30:04.005Z,82.07
2019-02-06T08:31:04.150Z,79.80
2019-02-06T08:32:04.293Z,79.99
2019-02-06T08:33:04.443Z,79.71
2019-02-06T08:34:04.585Z,79.80
2019-02-06T08:35:04.734Z,79.80
2019-02-06T08:36:04.873Z,79.99
2019-02-06T08:37:05.020Z,82.83
2019-02-06T08:38:05.166Z,82.92
2019-02-06T08:39:05.305Z,80.18
2019-02-06T08:40:05.450Z,78.58
2019-02-06T08:41:05.596Z,77.34
2019-02-06T08:42:05.740Z,76.68
2019-02-06T08:43:05.887Z,76.59
2019-02-06T08:44:06.032Z,79.33
2019-02-06T08:45:06.174Z,80.37
2019-02-06T08:46:06.320Z,81.88
2019-02-06T08:47:06.461Z,82.45
2019-02-06T08:48:06.606Z,81.60
2019-02-06T08:49:06.751Z,81.88
2019-02-06T08:50:06.894Z,82.35
2019-02-06T08:51:07.038Z,81.22
2019-02-06T08:52:07.181Z,81.98
2019-02-06T08:53:07.326Z,81.70
2019-02-06T08:54:07.470Z,82.54
2019-02-06T08:55:07.617Z,82.35
2019-02-06T08:56:07.757Z,82.83
2019-02-06T08:57:07.902Z,80.46
2019-02-06T08:58:08.045Z,79.80
2019-02-06T08:59:08.191Z,78.29
2019-02-06T09:00:08.335Z,77.72
2019-02-06T09:01:08.479Z,77.34
2019-02-06T09:02:08.626Z,74.79
2019-02-06T09:03:08.771Z,73.50
2019-02-06T09:04:08.914Z,72.37
2019-02-06T09:05:09.060Z,71.23
2019-02-06T09:06:09.212Z,71.61
2019-02-06T09:07:09.347Z,72.94
2019-02-06T09:08:09.490Z,73.32
2019-02-06T09:09:09.636Z,74.26
2019-02-06T09:10:09.780Z,75.59
2019-02-06T09:11:09.924Z,77.95
2019-02-06T09:12:10.066Z,80.88
2019-02-06T09:13:10.211Z,82.91
2019-02-06T09:14:10.356Z,82.97
2019-02-06T09:15:10.502Z,85.57
2019-02-06T09:16:10.642Z,85.47
2019-02-06T09:17:10.794Z,86.79
2019-02-06T09:18:10.933Z,87.74
2019-02-06T09:19:11.078Z,91.24
2019-02-06T09:20:11.222Z,92.94
2019-02-06T09:21:11.374Z,94.18
2019-02-06T09:22:11.510Z,97.49
2019-02-06T09:23:11.653Z,96.83
2019-02-06T09:24:11.799Z,96.26
2019-02-06T09:25:11.947Z,97.77
2019-02-06T09:26:12.084Z,98.82
2019-02-06T09:27:12.231Z,99.01
2019-02-06T09:28:12.374Z,98.44
2019-02-06T09:29:12.516Z,99.99
2019-02-06T09:30:12.665Z,99.99
2019-02-06T09:31:12.803Z,99.99
2019-02-06T09:32:12.951Z,99.99
2019-02-06T09:33:13.096Z,99.99
2019-02-06T09:34:13.241Z,99.99
2019-02-06T09:35:13.384Z,99.99
2019-02-06T09:36:13.530Z,99.99
2019-02-06T09:37:13.677Z,99.99
2019-02-06T09:38:13.817Z,99.99
2019-02-06T09:39:13.961Z,99.99
2019-02-06T09:40:14.105Z,99.99
2019-02-06T09:41:14.251Z,99.99
2019-02-06T09:42:14.401Z,99.99
2019-02-06T09:43:14.540Z,99.99
2019-02-06T09:44:14.686Z,99.99
2019-02-06T09:45:14.831Z,99.99
2019-02-06T09:46:14.975Z,99.99
2019-02-06T09:47:15.121Z,99.99
2019-02-06T09:48:15.267Z,99.99
2019-02-06T09:49:15.412Z,99.99
2019-02-06T09:50:15.556Z,99.99
2019-02-06T09:51:15.701Z,99.99
2019-02-06T09:52:15.850Z,99.99
2019-02-06T09:53:15.991Z,99.99
2019-02-06T09:54:16.138Z,99.99
2019-02-06T09:55:16.283Z,99.99
2019-02-06T09:56:16.428Z,99.99
2019-02-06T09:57:16.572Z,99.99
2019-02-06T09:58:16.721Z,99.99
2019-02-06T09:59:16.867Z,99.99
2019-02-06T10:00:17.013Z,99.99
2019-02-06T10:01:17.157Z,99.99
2019-02-06T10:02:17.310Z,99.99
2019-02-06T10:03:17.471Z,99.99
2019-02-06T10:04:17.594Z,99.99
2019-02-06T10:05:17.742Z,99.99
2019-02-06T10:06:17.887Z,99.99
2019-02-06T10:07:18.032Z,99.99
2019-02-06T10:08:18.179Z,99.99
2019-02-06T10:09:23.055Z,99.99
2019-02-06T10:10:18.456Z,99.99
2019-02-06T10:11:18.603Z,99.99
2019-02-06T10:12:18.751Z,99.99
2019-02-06T10:13:18.897Z,99.99
2019-02-06T10:14:19.042Z,99.99
2019-02-06T10:15:19.187Z,99.99
2019-02-06T10:16:20.283Z,99.99
2019-02-06T10:17:19.482Z,99.99
2019-02-06T10:18:19.630Z,99.99
2019-02-06T10:19:19.776Z,99.99
2019-02-06T10:20:19.924Z,99.99
2019-02-06T10:21:20.072Z,99.99
2019-02-06T10:22:20.218Z,99.99
2019-02-06T10:23:20.368Z,99.99
2019-02-06T10:24:20.519Z,99.99
2019-02-06T10:25:20.661Z,99.99
2019-02-06T10:26:20.813Z,99.99
2019-02-06T10:27:23.902Z,99.99
2019-02-06T10:28:24.057Z,99.99
2019-02-06T10:29:21.248Z,99.99
2019-02-06T10:30:21.396Z,99.99
2019-02-06T10:31:21.545Z,99.99
2019-02-06T10:32:21.690Z,99.99
2019-02-06T10:33:21.845Z,99.99
2019-02-06T10:34:21.984Z,99.99
2019-02-06T10:35:22.136Z,99.99
2019-02-06T10:36:22.290Z,99.99
2019-02-06T10:37:22.453Z,99.99
2019-02-06T10:38:22.613Z,99.99
2019-02-06T10:39:33.969Z,99.99
2019-02-06T10:40:22.910Z,99.99
2019-02-06T10:41:23.060Z,99.99
2019-02-06T10:42:23.207Z,99.99
2019-02-06T10:43:31.544Z,99.99
2019-02-06T10:44:23.529Z,99.99
2019-02-06T10:45:23.658Z,99.99
2019-02-06T10:46:23.793Z,99.99
2019-02-06T10:47:23.942Z,99.99
2019-02-06T10:48:24.088Z,99.99
2019-02-06T10:49:24.299Z,99.99
2019-02-06T10:50:24.385Z,99.99
2019-02-06T10:51:24.531Z,99.99
2019-02-06T10:52:24.676Z,99.99
2019-02-06T10:53:24.826Z,99.99
2019-02-06T10:54:24.972Z,99.99
2019-02-06T10:55:25.132Z,99.99
2019-02-06T10:56:25.268Z,99.99
2019-02-06T10:57:25.416Z,99.99
2019-02-06T10:58:25.566Z,99.99
2019-02-06T10:59:25.717Z,99.99
2019-02-06T11:00:25.861Z,99.99
2019-02-06T11:01:26.007Z,99.99
2019-02-06T11:02:26.156Z,99.99
2019-02-06T11:03:26.303Z,99.99
2019-02-06T11:04:26.450Z,99.99
2019-02-06T11:05:26.599Z,99.99
2019-02-06T11:06:26.747Z,99.99
2019-02-06T11:07:26.899Z,99.99
2019-02-06T11:08:27.045Z,99.99
2019-02-06T11:09:27.192Z,99.99
2019-02-06T11:10:27.340Z,99.99
2019-02-06T11:11:27.528Z,99.99
2019-02-06T11:12:27.638Z,99.99
2019-02-06T11:13:27.816Z,99.99
2019-02-06T11:14:27.962Z,99.99
2019-02-06T11:15:28.117Z,99.99
2019-02-06T11:16:28.263Z,99.99
2019-02-06T11:17:28.410Z,99.99
2019-02-06T11:18:28.559Z,99.99
2019-02-06T11:19:28.707Z,99.99
2019-02-06T11:20:28.857Z,99.99
2019-02-06T11:21:29.005Z,99.99
2019-02-06T11:22:29.152Z,99.99
2019-02-06T11:23:29.300Z,99.99
2019-02-06T11:24:29.450Z,99.99
2019-02-06T11:25:29.598Z,97.97
2019-02-06T11:26:29.746Z,97.41
2019-02-06T11:27:29.895Z,99.58
2019-02-06T11:28:30.043Z,91.99
2019-02-06T11:29:30.193Z,90.57
2019-02-06T11:30:30.342Z,91.99
2019-02-06T11:31:30.488Z,90.57
2019-02-06T11:32:30.636Z,94.65
2019-02-06T11:33:30.784Z,93.80
2019-02-06T11:34:30.933Z,91.52
2019-02-06T11:35:31.083Z,90.99
2019-02-06T11:36:31.231Z,88.62
2019-02-06T11:37:31.416Z,89.28
2019-02-06T11:38:31.530Z,91.85
2019-02-06T11:39:31.677Z,91.75
2019-02-06T11:40:31.825Z,91.19
2019-02-06T11:41:31.975Z,90.52
2019-02-06T11:42:32.123Z,90.33
2019-02-06T11:43:32.388Z,85.49
2019-02-06T11:44:32.422Z,83.97
2019-02-06T11:45:32.569Z,83.01
2019-02-06T11:46:32.719Z,82.16
2019-02-06T11:47:32.866Z,82.45
2019-02-06T11:48:33.016Z,82.54
2019-02-06T11:49:33.164Z,81.78
2019-02-06T11:50:33.318Z,81.02
2019-02-06T11:51:33.465Z,81.30
2019-02-06T11:52:33.606Z,83.20
2019-02-06T11:53:33.754Z,81.59
2019-02-06T11:54:33.903Z,83.11
2019-02-06T11:55:34.052Z,80.83
2019-02-06T11:56:34.198Z,80.58
2019-02-06T11:57:34.348Z,79.35
2019-02-06T11:58:34.502Z,78.74
2019-02-06T11:59:34.647Z,79.50
2019-02-06T12:00:34.795Z,78.97
2019-02-06T12:01:34.945Z,80.11
2019-02-06T12:02:37.406Z,79.63
2019-02-06T12:03:35.244Z,79.73
2019-02-06T12:04:35.390Z,78.97
2019-02-06T12:05:35.539Z,78.59
2019-02-06T12:06:35.687Z,78.69
2019-02-06T12:07:35.836Z,77.26
2019-02-06T12:08:35.983Z,76.78
2019-02-06T12:09:36.135Z,78.21
2019-02-06T12:10:36.294Z,77.36
2019-02-06T12:11:36.446Z,78.78
2019-02-06T12:12:36.578Z,78.11
2019-02-06T12:13:36.730Z,77.87
2019-02-06T12:14:36.877Z,77.58
2019-02-06T12:15:37.744Z,77.58
2019-02-06T12:16:37.181Z,76.35
2019-02-06T12:17:37.325Z,76.92
2019-02-06T12:18:37.474Z,75.87
2019-02-06T12:19:37.625Z,75.96
2019-02-06T12:20:37.775Z,75.78
2019-02-06T12:21:37.922Z,76.06
2019-02-06T12:22:38.073Z,75.59
2019-02-06T12:23:38.223Z,74.77
2019-02-06T12:24:38.370Z,73.34
2019-02-06T12:25:38.522Z,72.52
2019-02-06T12:26:38.671Z,70.72
2019-02-06T12:27:38.820Z,69.23
2019-02-06T12:28:38.969Z,68.75
2019-02-06T12:29:39.119Z,68.88
2019-02-06T12:30:39.266Z,67.45
2019-02-06T12:31:39.418Z,66.31
2019-02-06T12:32:39.566Z,65.73
2019-02-06T12:33:39.716Z,65.16
2019-02-06T12:34:39.866Z,65.16
2019-02-06T12:35:40.015Z,65.64
2019-02-06T12:36:40.165Z,65.51
2019-02-06T12:37:40.314Z,65.99
2019-02-06T12:38:40.464Z,65.80
2019-02-06T12:39:40.611Z,65.61
2019-02-06T12:40:40.763Z,65.45
2019-02-06T12:41:40.909Z,64.40
2019-02-06T12:42:41.059Z,63.57
2019-02-06T12:43:41.215Z,62.62
2019-02-06T12:44:41.363Z,61.35
2019-02-06T12:45:41.515Z,62.12
2019-02-06T12:46:41.663Z,63.51
2019-02-06T12:47:41.813Z,63.04
2019-02-06T12:48:41.967Z,64.37
2019-02-06T12:49:42.116Z,64.72
2019-02-06T12:50:42.268Z,65.48
2019-02-06T12:51:42.417Z,65.38
2019-02-06T12:52:42.570Z,64.65
2019-02-06T12:53:42.720Z,64.31
2019-02-06T12:54:42.870Z,64.43